Time;durP1;ratioP1;P1;durP2;ratioP2;P2;SDS_P1;SDS_P2;PMS_P1;PMS_P2;Temp;Humidity;BMP_temperature;BMP_pressure;BME280_temperature;BME280_humidity;BME280_pressure;Samples;Min_cycle;Max_cycle;Signal;HPM_P1;HPM_P2
2021/04/12 00:01:47;;;;;;;4.10;2.35;;;;;;;1.10;87.91;100907.25;4996728;28;20062;-73
2021/04/12 00:04:31;;;;;;;4.55;2.40;;;;;;;1.01;87.40;100902.94;4997213;28;20444;-73
2021/04/12 00:07:06;;;;;;;7.50;2.70;;;;;;;1.02;88.55;100919.56;4997168;28;20051;-73
2021/04/12 00:10:14;;;;;;;10.27;2.97;;;;;;;0.99;88.71;100920.50;5012233;28;20108;-74
2021/04/12 00:12:48;;;;;;;7.07;2.30;;;;;;;0.98;89.05;100917.88;4996079;28;20066;-73
2021/04/12 00:15:22;;;;;;;8.80;2.58;;;;;;;0.96;88.80;100917.88;4996873;28;20050;-73
2021/04/12 00:17:50;;;;;;;8.75;2.80;;;;;;;0.93;89.05;100918.78;4997020;28;20065;-73
2021/04/12 00:20:34;;;;;;;4.00;2.25;;;;;;;0.92;89.20;100917.03;4996785;28;20104;-73
2021/04/12 00:23:07;;;;;;;8.90;2.78;;;;;;;0.88;88.93;100917.94;4996577;28;20065;-73
2021/04/12 00:25:40;;;;;;;6.45;2.55;;;;;;;0.82;90.43;100912.78;4996595;28;20043;-73
2021/04/12 00:28:26;;;;;;;8.68;3.15;;;;;;;0.90;88.68;100921.44;4996688;28;20054;-73
2021/04/12 00:30:59;;;;;;;8.50;2.83;;;;;;;0.87;89.42;100921.47;4995982;28;20062;-73
2021/04/12 00:33:42;;;;;;;7.85;2.90;;;;;;;0.85;89.66;100925.88;4996343;28;20448;-73
2021/04/12 00:36:20;;;;;;;6.57;2.55;;;;;;;0.84;89.58;100929.38;4996456;28;20104;-73
2021/04/12 00:39:10;;;;;;;8.68;2.67;;;;;;;0.81;89.74;100926.75;4996935;28;20335;-74
2021/04/12 00:41:58;;;;;;;8.43;2.90;;;;;;;0.75;90.09;100927.69;4996253;28;20061;-74
2021/04/12 00:45:05;;;;;;;8.15;3.13;;;;;;;0.74;90.19;100923.34;4996338;28;20054;-73
2021/04/12 00:48:20;;;;;;;5.20;2.90;;;;;;;0.72;89.58;100917.22;4994127;28;20054;-73
2021/04/12 00:50:58;;;;;;;8.82;3.35;;;;;;;0.70;89.83;100926.00;4958592;28;20457;-73
2021/04/12 00:53:55;;;;;;;9.73;3.22;;;;;;;0.72;90.80;100932.09;4992210;28;20050;-73
2021/04/12 00:56:37;;;;;;;7.22;3.03;;;;;;;0.67;90.47;100930.38;4995960;28;20050;-73
2021/04/12 00:59:14;;;;;;;8.02;3.00;;;;;;;0.73;90.51;100933.84;4996209;28;20050;-73
2021/04/12 01:02:13;;;;;;;9.48;3.15;;;;;;;0.67;90.67;100940.03;4995900;28;20062;-72
2021/04/12 01:04:57;;;;;;;11.07;3.63;;;;;;;0.66;89.99;100939.13;4998806;28;20045;-73
2021/04/12 01:07:44;;;;;;;9.95;4.90;;;;;;;0.61;90.86;100945.31;5015445;28;20046;-73
2021/04/12 01:10:52;;;;;;;8.63;3.55;;;;;;;0.54;90.31;100945.38;5015413;28;20057;-73
2021/04/12 01:13:40;;;;;;;8.13;3.53;;;;;;;0.52;90.87;100957.66;5015398;28;20056;-73
2021/04/12 01:16:15;;;;;;;9.18;3.90;;;;;;;0.51;90.47;100957.66;5015129;28;20057;-72
2021/04/12 01:18:47;;;;;;;10.18;3.65;;;;;;;0.59;90.02;100963.72;5015482;28;20447;-73
2021/04/12 01:22:11;;;;;;;6.07;3.58;;;;;;;0.54;90.66;100970.75;5014292;28;20424;-73
2021/04/12 01:24:42;;;;;;;10.63;4.10;;;;;;;0.58;90.54;100963.72;5015460;28;20060;-73
2021/04/12 01:27:38;;;;;;;9.15;4.25;;;;;;;0.65;89.91;100968.09;5015223;28;20451;-73
2021/04/12 01:30:23;;;;;;;9.20;4.53;;;;;;;0.60;89.86;100970.72;5015518;28;20084;-73
2021/04/12 01:33:09;;;;;;;12.15;4.40;;;;;;;0.59;90.33;100971.59;5014475;28;20050;-73
2021/04/12 01:35:55;;;;;;;10.95;4.45;;;;;;;0.59;91.11;100968.97;5015110;28;20601;-73
2021/04/12 01:38:33;;;;;;;15.85;5.13;;;;;;;0.55;90.32;100977.78;5014360;28;20805;-73
2021/04/12 01:41:19;;;;;;;6.65;4.80;;;;;;;0.54;90.88;100970.75;5015156;28;20457;-73
2021/04/12 01:44:30;;;;;;;13.10;4.70;;;;;;;0.52;90.21;100980.41;5016347;28;20057;-73
2021/04/12 01:47:12;;;;;;;9.98;5.22;;;;;;;0.48;90.68;100981.31;4996264;28;20109;-73
2021/04/12 01:50:13;;;;;;;13.57;5.05;;;;;;;0.50;91.23;100990.06;5014217;28;20058;-73
2021/04/12 01:52:50;;;;;;;;;;;;;;;0.44;91.25;100996.19;5015816;28;20069;-73
2021/04/12 01:55:41;;;;;;;6.75;4.75;;;;;;;0.43;90.86;100997.06;5015294;28;19975;-73
2021/04/12 01:58:07;;;;;;;8.15;4.57;;;;;;;0.38;91.14;100997.13;5015217;28;20091;-73
2021/04/12 02:01:15;;;;;;;9.13;5.15;;;;;;;0.35;91.38;100991.88;5014915;28;20050;-73
2021/04/12 02:04:20;;;;;;;12.50;5.18;;;;;;;0.33;91.89;100995.41;5012378;28;20145;-73
2021/04/12 02:07:12;;;;;;;13.27;4.85;;;;;;;0.30;91.39;101001.53;4995023;28;20057;-73
2021/04/12 02:09:42;;;;;;;9.30;4.70;;;;;;;0.25;91.84;100998.94;5003200;28;20062;-73
2021/04/12 02:12:44;;;;;;;8.60;4.75;;;;;;;0.31;91.31;101005.91;4995151;28;20054;-75
2021/04/12 02:16:04;;;;;;;9.70;5.05;;;;;;;0.30;91.27;101003.28;4995293;28;20352;-73
2021/04/12 02:18:45;;;;;;;10.18;5.40;;;;;;;0.27;91.21;101009.41;5012699;28;20054;-73
2021/04/12 02:21:44;;;;;;;11.52;5.85;;;;;;;0.25;91.21;101011.19;5016441;28;20109;-73
2021/04/12 02:24:30;;;;;;;11.55;5.07;;;;;;;0.16;91.47;101000.72;5002450;28;20384;-73
2021/04/12 02:27:18;;;;;;;9.10;5.47;;;;;;;0.20;92.08;101013.84;4998691;28;20053;-73
2021/04/12 02:29:59;;;;;;;15.98;6.47;;;;;;;0.25;91.61;101016.44;4999035;28;20333;-73
2021/04/12 02:32:52;;;;;;;14.98;6.47;;;;;;;0.25;91.66;101016.44;4998522;28;20066;-73
2021/04/12 02:35:40;;;;;;;12.30;6.13;;;;;;;0.20;91.41;101013.84;4998910;28;20368;-73
2021/04/12 02:38:36;;;;;;;12.00;5.57;;;;;;;0.26;91.17;101023.44;4997506;28;20050;-73
2021/04/12 02:41:16;;;;;;;12.93;6.47;;;;;;;0.26;90.65;101029.56;5013810;28;20054;-73
2021/04/12 02:43:57;;;;;;;14.82;6.40;;;;;;;0.28;90.72;101034.81;5013880;28;20061;-73
2021/04/12 02:46:41;;;;;;;11.00;5.53;;;;;;;0.26;91.40;101039.19;4998606;28;20046;-73
2021/04/12 02:49:13;;;;;;;18.02;6.00;;;;;;;0.27;91.57;101040.91;4998595;28;20054;-73
2021/04/12 02:52:16;;;;;;;8.20;5.18;;;;;;;0.30;91.11;101037.41;4998536;28;20050;-73
2021/04/12 02:55:13;;;;;;;12.85;4.88;;;;;;;0.42;90.69;101041.75;4998094;28;20392;-73
2021/04/12 02:58:31;;;;;;;10.85;4.65;;;;;;;0.40;90.50;101045.25;4998824;28;20058;-73
2021/04/12 03:01:02;;;;;;;10.80;4.53;;;;;;;0.40;90.37;101042.63;5006907;28;20057;-73
2021/04/12 03:03:54;;;;;;;9.75;5.10;;;;;;;0.44;90.04;101058.38;4999738;28;20054;-72
2021/04/12 03:06:20;;;;;;;;;;;;;;;0.41;89.94;101048.75;5016235;28;20120;-73
2021/04/12 03:09:07;;;;;;;8.82;5.43;;;;;;;0.38;90.15;101047.00;5017849;28;20274;-72
2021/04/12 03:11:54;;;;;;;8.80;5.15;;;;;;;0.38;90.42;101043.53;5017603;28;20057;-72
2021/04/12 03:14:56;;;;;;;9.00;5.13;;;;;;;0.35;91.24;101043.53;5017634;28;20501;-73
2021/04/12 03:17:47;;;;;;;11.32;5.55;;;;;;;0.31;90.78;101040.03;4996137;28;20058;-72
2021/04/12 03:20:28;;;;;;;8.13;5.32;;;;;;;0.41;90.33;101048.75;5017570;28;20057;-72
2021/04/12 03:23:00;;;;;;;12.88;5.00;;;;;;;0.42;90.71;101045.25;5017695;28;20131;-73
2021/04/12 03:25:32;;;;;;;11.25;4.88;;;;;;;0.33;90.53;101022.50;5017511;28;20112;-73
2021/04/12 03:28:26;;;;;;;17.48;6.68;;;;;;;0.52;90.20;101046.06;5017651;28;20395;-73
2021/04/12 03:31:23;;;;;;;6.35;4.80;;;;;;;0.54;90.09;101050.44;5016264;28;20768;-72
2021/04/12 03:34:23;;;;;;;14.95;5.25;;;;;;;0.54;89.89;101060.94;5017354;28;20060;-72
2021/04/12 03:37:11;;;;;;;13.63;4.95;;;;;;;0.53;89.29;101053.97;5017252;28;20054;-72
2021/04/12 03:39:55;;;;;;;9.88;5.25;;;;;;;0.53;90.28;101053.06;5017063;28;20348;-73
2021/04/12 03:42:55;;;;;;;12.25;5.97;;;;;;;0.56;90.58;101058.31;5017209;28;20062;-72
2021/04/12 03:45:42;;;;;;;8.98;5.35;;;;;;;0.55;90.21;101056.59;5017171;28;20057;-72
2021/04/12 03:48:44;;;;;;;11.48;5.70;;;;;;;0.42;90.85;101045.25;5016720;28;20050;-73
2021/04/12 03:51:16;;;;;;;12.35;5.55;;;;;;;0.43;90.07;101056.63;5016884;28;20110;-72
2021/04/12 03:53:58;;;;;;;11.38;5.43;;;;;;;0.40;90.55;101063.63;5016531;28;20058;-72
2021/04/12 03:56:42;;;;;;;10.55;6.25;;;;;;;0.34;90.63;101058.44;5015508;28;20046;-72
2021/04/12 03:59:15;;;;;;;12.73;6.25;;;;;;;0.38;91.07;101069.78;5015501;28;20056;-73
2021/04/12 04:02:06;;;;;;;11.82;6.38;;;;;;;0.37;91.27;101068.91;5016460;28;20065;-73
2021/04/12 04:04:33;;;;;;;;;;;;;;;0.36;90.95;101072.41;5017175;28;20046;-73
2021/04/12 04:07:20;;;;;;;11.73;5.68;;;;;;;0.42;90.86;101081.16;5016511;28;19921;-74
2021/04/12 04:09:50;;;;;;;11.82;6.25;;;;;;;0.44;91.42;101074.13;5016456;28;20067;-72
2021/04/12 04:12:35;;;;;;;10.82;6.78;;;;;;;0.40;91.51;101076.75;5016347;28;20057;-72
2021/04/12 04:15:27;;;;;;;12.52;6.50;;;;;;;0.40;91.70;101084.63;5016585;28;20142;-73
2021/04/12 04:18:19;;;;;;;11.38;6.03;;;;;;;0.40;91.41;101084.63;5016427;28;20057;-72
2021/04/12 04:21:02;;;;;;;10.30;5.43;;;;;;;0.32;91.13;101072.44;5016804;28;20072;-72
2021/04/12 04:23:47;;;;;;;10.60;5.90;;;;;;;0.28;91.17;101055.81;5013535;28;20068;-73
2021/04/12 04:26:51;;;;;;;13.57;5.95;;;;;;;0.41;91.80;101082.91;5016102;28;20050;-73
2021/04/12 04:29:32;;;;;;;11.35;5.95;;;;;;;0.38;91.96;101083.78;5014912;28;20054;-71
2021/04/12 04:32:14;;;;;;;12.02;7.15;;;;;;;0.21;91.55;101054.09;5015752;28;20054;-72
2021/04/12 04:35:02;;;;;;;11.88;6.57;;;;;;;0.35;91.16;101069.78;5016153;28;20115;-72
2021/04/12 04:37:51;;;;;;;14.75;5.82;;;;;;;0.44;92.25;101090.75;5016046;28;20042;-72
2021/04/12 04:40:54;;;;;;;9.10;7.05;;;;;;;0.46;92.24;101086.38;5016087;28;20049;-72
2021/04/12 04:43:35;;;;;;;14.82;7.30;;;;;;;0.57;92.55;101088.97;4977472;28;20058;-72
2021/04/12 04:46:23;;;;;;;11.77;6.75;;;;;;;0.65;91.80;101088.94;5004241;28;20060;-72
2021/04/12 04:48:52;;;;;;;11.18;6.65;;;;;;;0.69;91.55;101095.06;5016005;28;20108;-77
2021/04/12 04:51:29;;;;;;;13.32;6.78;;;;;;;0.71;90.51;101095.91;5015477;28;20050;-71
2021/04/12 04:54:11;;;;;;;15.82;6.75;;;;;;;0.75;90.99;101100.25;5012743;28;20042;-72
2021/04/12 04:56:55;;;;;;;11.38;6.75;;;;;;;0.85;90.72;101101.06;5013216;28;20061;-72
2021/04/12 04:59:36;;;;;;;15.73;6.75;;;;;;;0.85;90.40;101096.69;5016099;28;20103;-72
2021/04/12 05:02:08;;;;;;;;;;;;;;;0.92;90.38;101108.03;5014184;28;20100;-72
2021/04/12 05:05:12;;;;;;;12.18;6.40;;;;;;;0.92;89.56;101111.56;5015422;28;19932;-72
2021/04/12 05:08:15;;;;;;;13.68;6.38;;;;;;;0.90;89.66;101115.97;5014136;28;20050;-72
2021/04/12 05:11:19;;;;;;;9.23;6.10;;;;;;;0.91;89.15;101116.81;5012637;28;20054;-72
2021/04/12 05:14:20;;;;;;;10.10;6.60;;;;;;;0.92;89.76;101118.56;5013168;28;20069;-72
2021/04/12 05:16:46;;;;;;;17.13;7.88;;;;;;;0.93;89.38;101123.81;4996173;28;20100;-72
2021/04/12 05:19:34;;;;;;;12.23;6.53;;;;;;;0.98;89.50;101125.56;4995823;28;20054;-74
2021/04/12 05:22:38;;;;;;;9.73;7.15;;;;;;;1.07;89.33;101138.63;5012506;28;20049;-72
2021/04/12 05:25:23;;;;;;;12.18;6.93;;;;;;;1.11;88.79;101140.38;5018537;28;20042;-72
2021/04/12 05:28:11;;;;;;;13.88;7.28;;;;;;;1.13;89.20;101137.75;5016542;28;20503;-72
2021/04/12 05:30:59;;;;;;;12.75;7.40;;;;;;;1.21;89.34;101144.69;5015212;28;20451;-73
2021/04/12 05:33:34;;;;;;;12.27;7.13;;;;;;;1.28;88.86;101147.28;5014920;28;20054;-73
2021/04/12 05:36:38;;;;;;;10.93;6.40;;;;;;;1.27;88.36;101142.91;5015558;28;20061;-72
2021/04/12 05:39:33;;;;;;;9.25;6.47;;;;;;;1.31;88.30;101153.38;5015521;28;20058;-74
2021/04/12 05:42:07;;;;;;;10.30;6.28;;;;;;;1.29;87.57;101149.91;5015327;28;20053;-75
2021/04/12 05:44:55;;;;;;;15.35;7.32;;;;;;;1.26;88.18;101156.94;5014128;28;20613;-74
2021/04/12 05:47:45;;;;;;;17.80;7.63;;;;;;;1.22;88.33;101164.84;5012077;28;20133;-73
2021/04/12 05:50:45;;;;;;;12.82;6.32;;;;;;;1.24;88.40;101156.09;4995524;28;20433;-72
2021/04/12 05:53:20;;;;;;;11.50;6.22;;;;;;;1.31;88.68;101174.44;5000033;28;20054;-77
2021/04/12 05:56:13;;;;;;;14.25;7.25;;;;;;;1.29;87.93;101170.06;5018519;28;20060;-72
2021/04/12 05:59:11;;;;;;;11.20;7.88;;;;;;;1.27;88.25;101177.97;5019231;28;20061;-73
2021/04/12 06:01:43;;;;;;;11.00;7.35;;;;;;;1.36;88.82;101179.66;5019114;28;20058;-76
2021/04/12 06:04:27;;;;;;;15.23;6.95;;;;;;;1.38;88.38;101191.06;5017893;28;20089;-72
2021/04/12 06:07:12;;;;;;;15.43;6.97;;;;;;;1.38;88.11;101184.91;5001687;28;20068;-75
2021/04/12 06:09:59;;;;;;;18.80;9.40;;;;;;;1.45;88.51;101197.16;5018313;28;20056;-71
2021/04/12 06:12:40;;;;;;;17.40;8.30;;;;;;;1.45;88.04;101192.78;4999081;28;20108;-73
2021/04/12 06:15:06;;;;;;;16.55;8.82;;;;;;;1.46;88.04;101191.88;5009548;28;20053;-74
2021/04/12 06:18:10;;;;;;;15.02;8.20;;;;;;;1.43;88.42;101201.56;5017932;28;20111;-72
2021/04/12 06:20:54;;;;;;;16.15;8.80;;;;;;;1.48;88.64;101203.25;5016758;28;20054;-74
2021/04/12 06:23:59;;;;;;;13.82;8.80;;;;;;;1.48;87.96;101208.53;5018315;28;20068;-74
2021/04/12 06:26:52;;;;;;;20.25;9.75;;;;;;;1.39;88.80;101205.06;5014050;28;20049;-73
2021/04/12 06:29:46;;;;;;;14.98;9.32;;;;;;;1.52;88.97;101216.41;5013950;28;20383;-74
2021/04/12 06:32:33;;;;;;;17.00;9.10;;;;;;;1.65;89.04;101214.56;5018333;28;20050;-74
2021/04/12 06:35:20;;;;;;;15.15;10.68;;;;;;;1.66;87.94;101219.81;5018629;28;20053;-74
2021/04/12 06:38:10;;;;;;;14.25;9.85;;;;;;;1.78;88.10;101223.25;5018388;28;20046;-73
2021/04/12 06:41:08;;;;;;;12.32;9.40;;;;;;;1.71;87.73;101225.06;5018373;28;20064;-74
2021/04/12 06:43:53;;;;;;;14.38;9.38;;;;;;;1.76;87.92;101226.75;5018389;28;20618;-75
2021/04/12 06:46:56;;;;;;;13.18;9.73;;;;;;;1.75;87.72;101227.66;5018214;28;20053;-74
2021/04/12 06:49:47;;;;;;;16.50;9.88;;;;;;;1.73;88.37;101234.69;5017311;28;20099;-75
2021/04/12 06:52:30;;;;;;;20.70;11.57;;;;;;;1.72;88.73;101235.56;5017906;28;20060;-75
2021/04/12 06:55:16;;;;;;;14.55;11.10;;;;;;;1.81;88.74;101237.28;5017892;28;20424;-74
2021/04/12 06:58:24;;;;;;;15.38;12.43;;;;;;;1.71;89.69;101240.84;5018082;28;20058;-73
2021/04/12 07:01:15;;;;;;;19.10;12.60;;;;;;;1.56;90.27;101247.06;5033244;28;20058;-74
2021/04/12 07:03:47;;;;;;;18.08;12.00;;;;;;;1.63;90.99;101254.03;5017641;28;20440;-75
2021/04/12 07:06:41;;;;;;;17.05;12.07;;;;;;;1.59;90.90;101258.44;5017173;28;20070;-75
2021/04/12 07:09:19;;;;;;;18.23;12.00;;;;;;;1.60;91.19;101254.06;5017838;28;20375;-75
2021/04/12 07:11:55;;;;;;;22.20;12.30;;;;;;;1.53;92.02;101265.53;5017455;28;20056;-73
2021/04/12 07:14:58;;;;;;;14.43;11.75;;;;;;;1.62;92.26;101262.81;5017608;28;20054;-74
2021/04/12 07:18:02;;;;;;;17.80;11.63;;;;;;;1.73;91.56;101268.91;5017305;28;20395;-73
2021/04/12 07:20:53;;;;;;;14.20;10.13;;;;;;;1.73;91.20;101263.63;5017466;28;20443;-73
2021/04/12 07:23:56;;;;;;;15.15;10.45;;;;;;;1.93;91.24;101267.91;5016386;28;20050;-74
2021/04/12 07:26:51;;;;;;;15.38;10.27;;;;;;;1.99;89.82;101269.59;5016532;28;20058;-73
2021/04/12 07:29:44;;;;;;;13.70;10.23;;;;;;;2.01;89.88;101273.97;5017309;28;20412;-74
2021/04/12 07:32:33;;;;;;;15.63;10.63;;;;;;;2.23;89.80;101273.81;5016033;28;20108;-75
2021/04/12 07:35:33;;;;;;;16.52;11.18;;;;;;;2.35;89.04;101274.59;5017091;28;20042;-73
2021/04/12 07:38:36;;;;;;;14.48;11.45;;;;;;;2.42;88.85;101265.75;5016977;28;20049;-73
2021/04/12 07:41:27;;;;;;;15.15;11.88;;;;;;;2.51;87.25;101278.81;5017374;28;20058;-74
2021/04/12 07:44:18;;;;;;;21.67;12.60;;;;;;;2.56;87.09;101284.94;5017040;28;20042;-73
2021/04/12 07:47:16;;;;;;;15.90;11.35;;;;;;;2.80;87.27;101285.59;5015938;28;20432;-74
2021/04/12 07:49:54;;;;;;;18.73;12.43;;;;;;;2.78;86.21;101284.72;5017170;28;20062;-73
2021/04/12 07:52:57;;;;;;;17.85;12.77;;;;;;;2.65;86.82;101299.78;5016100;28;20050;-75
2021/04/12 07:55:38;;;;;;;16.95;13.00;;;;;;;2.64;87.38;101307.69;5016742;28;20133;-73
2021/04/12 07:58:29;;;;;;;17.92;13.20;;;;;;;2.81;87.04;101305.78;5016647;28;20053;-74
2021/04/12 08:01:32;;;;;;;19.65;13.90;;;;;;;2.96;87.46;101309.16;5016805;28;20050;-74
2021/04/12 08:04:40;;;;;;;17.45;13.20;;;;;;;3.20;86.27;101308.00;5015715;28;20428;-73
2021/04/12 08:08:11;;;;;;;19.05;12.20;;;;;;;3.30;85.16;101319.31;4997304;28;20058;-73
2021/04/12 08:10:58;;;;;;;12.00;9.50;;;;;;;3.19;83.27;101306.25;4974700;28;20439;-74
2021/04/12 08:13:53;;;;;;;15.95;11.98;;;;;;;3.09;85.57;101315.16;4997105;28;20054;-76
2021/04/12 08:16:56;;;;;;;17.25;11.32;;;;;;;3.08;87.11;101323.97;4996337;28;20046;-75
2021/04/12 08:20:07;;;;;;;16.58;10.40;;;;;;;3.01;86.97;101323.16;4996975;28;20058;-75
2021/04/12 08:22:51;;;;;;;8.20;6.28;;;;;;;2.85;86.06;101323.31;4996692;28;20391;-75
2021/04/12 08:25:42;;;;;;;15.23;8.82;;;;;;;2.82;87.39;101320.72;4996785;28;20057;-74
2021/04/12 08:28:11;;;;;;;11.95;8.40;;;;;;;2.97;88.92;101329.34;4996591;28;20129;-74
2021/04/12 08:31:05;;;;;;;15.15;8.95;;;;;;;3.04;87.15;101327.53;4995547;28;20137;-75
2021/04/12 08:34:18;;;;;;;13.90;7.45;;;;;;;3.04;86.07;101328.41;4995561;28;20502;-74
2021/04/12 08:37:00;;;;;;;14.77;7.32;;;;;;;3.16;85.12;101329.16;4996228;28;20046;-74
2021/04/12 08:40:01;;;;;;;15.23;6.88;;;;;;;3.37;83.55;101331.53;4996514;28;20061;-74
2021/04/12 08:42:46;;;;;;;10.45;6.43;;;;;;;3.42;83.36;101326.19;4988516;28;20046;-74
2021/04/12 08:45:31;;;;;;;11.63;7.00;;;;;;;3.64;83.62;101326.81;4996306;28;20054;-75
2021/04/12 08:48:45;;;;;;;10.15;6.32;;;;;;;3.85;82.72;101322.13;4996697;28;20046;-74
2021/04/12 08:51:36;;;;;;;17.20;7.47;;;;;;;3.82;82.40;101326.56;4936357;29;20107;-74
2021/04/12 08:54:05;;;;;;;6.82;5.65;;;;;;;3.92;81.72;101328.22;4996145;28;20075;-74
2021/04/12 08:56:53;;;;;;;11.85;5.32;;;;;;;3.88;81.29;101323.84;4996450;28;20055;-74
2021/04/12 08:59:47;;;;;;;7.93;4.90;;;;;;;3.97;80.55;101330.78;4995157;28;20120;-74
2021/04/12 09:02:35;;;;;;;7.55;5.88;;;;;;;3.93;81.71;101324.66;4995857;28;20440;-74
2021/04/12 09:05:14;;;;;;;12.20;6.80;;;;;;;4.12;82.68;101321.72;5002479;28;20145;-75
2021/04/12 09:08:09;;;;;;;12.02;5.63;;;;;;;4.21;77.79;101334.81;5015997;28;20132;-74
2021/04/12 09:11:05;;;;;;;7.47;5.13;;;;;;;4.42;77.63;101340.66;5014922;28;20071;-74
2021/04/12 09:14:00;;;;;;;8.93;4.97;;;;;;;4.63;77.78;101336.75;5019069;28;20496;-74
2021/04/12 09:16:51;;;;;;;7.88;5.13;;;;;;;4.52;77.82;101333.44;5015464;28;20432;-74
2021/04/12 09:19:59;;;;;;;6.93;4.50;;;;;;;4.46;77.44;101329.13;5015488;28;20495;-75
2021/04/12 09:22:47;;;;;;;11.68;5.05;;;;;;;4.66;78.70;101333.19;5010504;28;20112;-75
2021/04/12 09:25:32;;;;;;;7.30;5.82;;;;;;;4.80;77.87;101330.31;5015777;28;20058;-75
2021/04/12 09:28:31;;;;;;;9.43;4.63;;;;;;;4.78;74.91;101340.06;5015488;28;20060;-75
2021/04/12 09:31:07;;;;;;;10.95;4.78;;;;;;;4.82;73.15;101341.75;5015479;28;20057;-74
2021/04/12 09:33:53;;;;;;;9.55;4.30;;;;;;;4.93;74.76;101339.78;5015149;28;20054;-73
2021/04/12 09:36:37;;;;;;;6.65;3.58;;;;;;;5.05;72.76;101332.53;5015327;28;20100;-74
2021/04/12 09:39:32;;;;;;;11.00;4.10;;;;;;;5.06;71.96;101321.88;5014585;28;20049;-74
2021/04/12 09:42:04;;;;;;;12.40;4.00;;;;;;;5.21;73.45;101328.66;5014904;28;20397;-75
2021/04/12 09:45:18;;;;;;;7.95;4.13;;;;;;;5.65;72.29;101322.47;5015574;28;20053;-74
2021/04/12 09:47:50;;;;;;;8.82;4.20;;;;;;;5.94;72.22;101319.16;5016498;28;20065;-74
2021/04/12 09:50:55;;;;;;;8.00;3.10;;;;;;;6.24;69.20;101327.34;5015075;28;20394;-74
2021/04/12 09:53:56;;;;;;;7.53;3.80;;;;;;;6.41;67.97;101327.81;5015047;28;20120;-74
2021/04/12 09:57:05;;;;;;;8.53;3.10;;;;;;;6.56;64.57;101322.16;5013325;28;20428;-74
2021/04/12 10:00:02;;;;;;;5.75;3.03;;;;;;;6.62;66.36;101324.66;5015446;28;20054;-74
2021/04/12 10:02:51;;;;;;;5.90;2.75;;;;;;;6.63;64.53;101315.78;5014675;28;20522;-74
2021/04/12 10:05:23;;;;;;;9.23;3.75;;;;;;;6.52;66.29;101315.19;5004400;28;20077;-74
2021/04/12 10:08:31;;;;;;;8.23;2.20;;;;;;;6.10;65.08;101332.97;5015197;28;20064;-74
2021/04/12 10:11:04;;;;;;;3.35;2.50;;;;;;;5.50;67.46;101327.19;5008066;28;20058;-74
2021/04/12 10:13:37;;;;;;;6.38;2.17;;;;;;;5.32;69.92;101319.66;5014592;28;20053;-74
2021/04/12 10:16:27;;;;;;;4.70;2.10;;;;;;;5.20;71.67;101328.69;5014600;28;20321;-74
2021/04/12 10:19:01;;;;;;;;;;;;;;;5.08;68.70;101332.44;5014163;28;20054;-74
2021/04/12 10:22:10;;;;;;;5.68;2.22;;;;;;;5.04;68.58;101329.00;5015134;28;19952;-74
2021/04/12 10:24:54;;;;;;;4.60;2.00;;;;;;;5.12;68.03;101340.28;5012799;28;20049;-74
2021/04/12 10:27:26;;;;;;;3.90;1.92;;;;;;;5.38;68.37;101335.38;5014737;28;20053;-74
2021/04/12 10:30:00;;;;;;;4.32;1.92;;;;;;;5.52;65.45;101335.09;5014967;28;20068;-74
2021/04/12 10:32:32;;;;;;;2.45;1.63;;;;;;;5.40;65.61;101329.16;5014948;28;20057;-74
2021/04/12 10:35:08;;;;;;;5.90;2.05;;;;;;;5.32;65.49;101320.50;5015019;28;20054;-74
2021/04/12 10:37:42;;;;;;;8.15;2.17;;;;;;;5.37;66.68;101328.34;5014567;28;20053;-74
2021/04/12 10:40:21;;;;;;;4.82;2.30;;;;;;;5.29;65.96;101326.72;5015224;28;20108;-74
2021/04/12 10:43:11;;;;;;;6.05;2.33;;;;;;;5.18;68.43;101341.97;5018220;28;20065;-74
2021/04/12 10:45:58;;;;;;;4.10;2.40;;;;;;;5.10;69.38;101335.94;5018225;28;20053;-74
2021/04/12 10:48:29;;;;;;;6.55;2.38;;;;;;;4.85;70.60;101339.06;5018029;28;20056;-74
2021/04/12 10:51:00;;;;;;;4.65;1.67;;;;;;;4.66;69.29;101349.06;5018255;28;20100;-74
2021/04/12 10:53:52;;;;;;;4.47;1.80;;;;;;;4.33;74.48;101357.53;5018327;28;20052;-75
2021/04/12 10:56:40;;;;;;;6.82;2.00;;;;;;;3.56;76.52;101349.81;5017184;28;20056;-74
2021/04/12 10:59:31;;;;;;;2.50;1.58;;;;;;;3.04;79.46;101375.88;5018531;28;20139;-74
2021/04/12 11:02:07;;;;;;;5.28;1.88;;;;;;;2.55;82.30;101364.91;5017712;28;20062;-73
2021/04/12 11:04:57;;;;;;;5.75;1.85;;;;;;;2.45;83.67;101355.28;5017672;28;20054;-74
2021/04/12 11:07:46;;;;;;;5.07;2.45;;;;;;;2.48;85.09;101338.59;5014935;28;20053;-74
2021/04/12 11:10:12;;;;;;;6.78;1.88;;;;;;;2.70;86.41;101341.91;5016505;28;20056;-74
2021/04/12 11:13:00;;;;;;;7.60;2.20;;;;;;;3.18;84.74;101330.91;5018516;28;20049;-73
2021/04/12 11:15:35;;;;;;;3.40;1.33;;;;;;;3.85;77.78;101326.53;5017488;28;20132;-73
2021/04/12 11:18:22;;;;;;;6.93;1.70;;;;;;;4.43;80.52;101324.78;5017676;28;20057;-74
2021/04/12 11:21:35;;;;;;;5.57;1.83;;;;;;;5.12;75.45;101331.50;5017726;28;20050;-72
2021/04/12 11:24:17;;;;;;;4.32;1.17;;;;;;;5.58;69.70;101333.19;5017215;28;20061;-73
2021/04/12 11:27:21;;;;;;;5.68;1.45;;;;;;;5.92;74.55;101342.19;5017415;28;20052;-73
2021/04/12 11:30:19;;;;;;;7.10;1.88;;;;;;;5.88;71.16;101335.19;5017248;28;20057;-74
2021/04/12 11:33:15;;;;;;;9.38;1.58;;;;;;;5.56;68.70;101376.53;5017187;28;20060;-74
2021/04/12 11:36:37;;;;;;;7.10;2.17;;;;;;;3.91;76.50;101401.28;5017222;28;20095;-73
2021/04/12 11:39:17;;;;;;;3.97;1.80;;;;;;;3.35;82.64;101441.53;5015068;28;20057;-74
2021/04/12 11:41:58;;;;;;;2.92;1.20;;;;;;;2.88;74.80;101401.50;5016988;28;20121;-73
2021/04/12 11:44:39;;;;;;;4.18;2.22;;;;;;;2.47;85.08;101416.78;5017059;28;20057;-74
2021/04/12 11:47:17;;;;;;;3.08;1.90;;;;;;;2.47;87.35;101434.34;5017304;28;20432;-72
2021/04/12 11:49:46;;;;;;;6.30;2.10;;;;;;;2.76;86.97;101428.88;5017262;28;20057;-74
2021/04/12 11:52:25;;;;;;;7.50;2.33;;;;;;;2.99;87.10;101414.59;5015619;28;20053;-75
2021/04/12 11:55:08;;;;;;;3.53;2.10;;;;;;;3.37;84.90;101430.94;5016787;28;20136;-73
2021/04/12 11:57:56;;;;;;;2.47;1.88;;;;;;;3.29;85.12;101443.34;5016990;28;20050;-74
2021/04/12 12:00:43;;;;;;;2.40;2.08;;;;;;;3.40;87.08;101452.91;5016819;28;20060;-73
2021/04/12 12:03:17;;;;;;;4.70;2.10;;;;;;;3.30;85.07;101456.53;5016575;28;20081;-72
2021/04/12 12:06:14;;;;;;;3.47;2.38;;;;;;;3.08;87.38;101461.13;5016760;28;20053;-74
2021/04/12 12:09:18;;;;;;;2.60;1.75;;;;;;;3.10;87.67;101461.97;5015653;28;20428;-75
2021/04/12 12:12:21;;;;;;;5.22;3.10;;;;;;;3.06;86.84;101471.69;5016730;28;20053;-72
2021/04/12 12:15:21;;;;;;;2.53;2.33;;;;;;;2.66;87.28;101477.28;5015682;28;20049;-74
2021/04/12 12:17:57;;;;;;;3.13;2.40;;;;;;;2.58;89.21;101482.59;5016461;28;20057;-75
2021/04/12 12:20:34;;;;;;;4.78;3.55;;;;;;;2.43;90.41;101480.94;5016376;28;20136;-75
2021/04/12 12:23:19;;;;;;;4.15;3.08;;;;;;;2.28;91.55;101484.50;5016607;28;20057;-72
2021/04/12 12:25:49;;;;;;;2.88;2.58;;;;;;;2.08;91.41;101492.53;5015252;28;20057;-72
2021/04/12 12:28:36;;;;;;;4.47;3.17;;;;;;;1.75;92.99;101492.66;5014860;28;20061;-72
2021/04/12 12:31:10;;;;;;;4.47;3.78;;;;;;;1.92;94.22;101476.78;5015308;28;20129;-72
2021/04/12 12:33:55;;;;;;;6.50;4.47;;;;;;;2.44;95.77;101466.88;5015557;28;20050;-73
2021/04/12 12:36:31;;;;;;;3.20;2.90;;;;;;;2.89;93.14;101460.41;5015362;28;20092;-73
2021/04/12 12:39:36;;;;;;;5.03;3.13;;;;;;;3.33;91.49;101467.06;5015531;28;20089;-73
2021/04/12 12:42:12;;;;;;;9.43;4.63;;;;;;;3.91;92.50;101443.53;5015799;28;20236;-74
2021/04/12 12:44:41;;;;;;;5.47;3.47;;;;;;;4.46;91.20;101451.63;5015071;28;20076;-74
2021/04/12 12:47:14;;;;;;;3.15;2.50;;;;;;;4.48;85.41;101449.81;5015130;28;20050;-74
2021/04/12 12:49:49;;;;;;;5.43;3.30;;;;;;;4.65;86.80;101456.63;5014494;28;20084;-74
2021/04/12 12:52:55;;;;;;;3.22;2.83;;;;;;;4.46;83.61;101456.00;5016238;28;20049;-74
2021/04/12 12:55:37;;;;;;;5.65;2.88;;;;;;;4.54;85.35;101453.28;4997043;28;20057;-73
2021/04/12 12:58:17;;;;;;;4.93;2.90;;;;;;;4.73;85.50;101457.38;5015674;28;20348;-74
2021/04/12 13:00:47;;;;;;;4.55;3.20;;;;;;;4.86;82.00;101458.03;5031264;28;20077;-74
2021/04/12 13:03:28;;;;;;;6.85;3.17;;;;;;;5.27;84.32;101462.66;5015279;28;20105;-74
2021/04/12 13:05:58;;;;;;;4.95;3.10;;;;;;;5.11;78.71;101462.94;5015800;28;20088;-74